createdAt,value
2019-06-07T00:03:27.415Z,2.43
2019-06-07T00:08:28.541Z,4.36
2019-06-07T00:13:25.890Z,3.40
2019-06-07T00:18:32.485Z,3.14
2019-06-07T00:23:39.046Z,3.09
2019-06-07T00:28:45.551Z,3.76
2019-06-07T00:33:51.876Z,3.21
2019-06-07T00:38:58.308Z,3.34
2019-06-07T00:44:04.860Z,3.27
2019-06-07T00:49:14.697Z,2.98
2019-06-07T00:54:19.860Z,2.94
2019-06-07T00:59:21.229Z,2.87
2019-06-07T01:04:23.674Z,2.88
2019-06-07T01:09:25.006Z,3.06
2019-06-07T01:14:31.971Z,2.71
2019-06-07T01:19:38.547Z,2.84
2019-06-07T01:24:45.020Z,2.59
2019-06-07T01:29:51.518Z,2.66
2019-06-07T01:34:58.005Z,2.50
2019-06-07T01:40:04.582Z,2.46
2019-06-07T01:45:11.084Z,2.58
2019-06-07T01:50:21.137Z,2.49
2019-06-07T01:55:23.086Z,2.34
2019-06-07T02:00:22.071Z,2.27
2019-06-07T02:05:32.048Z,2.06
2019-06-07T02:10:38.871Z,2.24
2019-06-07T02:15:45.484Z,2.35
2019-06-07T02:20:52.053Z,2.44
2019-06-07T02:25:58.434Z,2.71
2019-06-07T02:31:04.747Z,2.52
2019-06-07T02:36:11.409Z,2.41
2019-06-07T02:41:17.900Z,2.29
2019-06-07T02:46:31.970Z,2.12
2019-06-07T02:51:36.063Z,2.13
2019-06-07T02:56:54.043Z,2.65
2019-06-07T03:01:43.862Z,2.45
2019-06-07T03:06:50.589Z,2.72
2019-06-07T03:11:57.316Z,2.57
2019-06-07T03:17:04.248Z,2.53
2019-06-07T03:22:10.827Z,3.22
2019-06-07T03:27:41.492Z,2.84
2019-06-07T03:32:23.926Z,3.06
2019-06-07T03:37:34.810Z,3.28
2019-06-07T03:42:39.691Z,3.42
2019-06-07T03:47:41.409Z,3.75
2019-06-07T03:52:41.330Z,3.87
2019-06-07T03:58:30.116Z,4.31
2019-06-07T04:02:54.864Z,4.34
2019-06-07T04:08:01.501Z,4.12
2019-06-07T04:13:08.075Z,4.25
2019-06-07T04:18:14.784Z,4.39
2019-06-07T04:23:28.153Z,4.15
2019-06-07T04:29:16.496Z,3.78
2019-06-07T04:33:39.295Z,3.04
2019-06-07T04:38:40.668Z,2.65
2019-06-07T04:43:49.164Z,2.65
2019-06-07T04:48:55.694Z,2.58
2019-06-07T04:54:02.404Z,1.77
2019-06-07T04:59:09.116Z,1.73
2019-06-07T05:04:15.816Z,1.91
2019-06-07T05:09:22.828Z,2.45
2019-06-07T05:14:31.240Z,2.02
2019-06-07T05:19:30.601Z,2.28
2019-06-07T05:24:40.788Z,2.06
2019-06-07T05:30:08.809Z,2.10
2019-06-07T05:34:54.972Z,1.63
2019-06-07T05:40:02.627Z,2.00
2019-06-07T05:45:09.128Z,1.61
2019-06-07T05:50:38.679Z,1.57
2019-06-07T05:55:22.237Z,1.64
2019-06-07T06:00:28.696Z,1.55
2019-06-07T06:05:41.624Z,1.37
2019-06-07T06:10:42.587Z,1.41
2019-06-07T06:15:54.419Z,1.56
2019-06-07T06:21:09.451Z,1.58
2019-06-07T06:25:57.608Z,1.16
2019-06-07T06:31:05.453Z,1.43
2019-06-07T06:36:12.043Z,1.47
2019-06-07T06:41:18.569Z,1.90
2019-06-07T06:46:38.825Z,1.90
2019-06-07T06:51:32.545Z,1.64
2019-06-07T06:56:39.749Z,2.00
2019-06-07T07:01:49.431Z,2.11
2019-06-07T07:06:50.480Z,2.28
2019-06-07T07:12:10.870Z,2.03
2019-06-07T07:17:05.623Z,1.77
2019-06-07T07:22:12.614Z,1.74
2019-06-07T07:27:19.264Z,1.77
2019-06-07T07:32:25.844Z,1.65
2019-06-07T07:37:32.721Z,1.74
2019-06-07T07:42:39.319Z,1.83
2019-06-07T07:48:03.220Z,1.74
2019-06-07T07:52:55.986Z,1.83
2019-06-07T07:58:01.466Z,1.92
2019-06-07T08:03:02.290Z,2.94
2019-06-07T08:08:04.942Z,2.01
2019-06-07T08:13:23.675Z,1.86
2019-06-07T08:18:10.866Z,1.87
2019-06-07T08:23:17.448Z,2.21
2019-06-07T08:28:23.945Z,2.05
2019-06-07T08:33:30.500Z,1.81
2019-06-07T08:38:47.635Z,1.88
2019-06-07T08:43:43.656Z,2.06
2019-06-07T08:48:51.225Z,2.03
2019-06-07T08:54:18.703Z,2.43
2019-06-07T08:59:11.379Z,2.12
2019-06-07T09:04:11.256Z,1.89
2019-06-07T09:09:08.723Z,1.92
2019-06-07T09:14:15.384Z,1.83
2019-06-07T09:19:22.053Z,1.77
2019-06-07T09:24:28.505Z,1.98
2019-06-07T09:29:34.900Z,1.92
2019-06-07T09:34:41.426Z,1.94
2019-06-07T09:39:48.460Z,3.35
2019-06-07T09:45:05.666Z,1.91
2019-06-07T09:49:56.758Z,2.65
2019-06-07T09:55:13.877Z,1.83
2019-06-07T10:00:33.564Z,2.23
2019-06-07T10:05:14.120Z,2.56
2019-06-07T10:15:17.730Z,1.71
2019-06-07T10:20:24.472Z,2.56
2019-06-07T10:25:30.932Z,2.02
2019-06-07T10:30:37.533Z,1.46
2019-06-07T10:35:43.965Z,1.58
2019-06-07T10:40:50.419Z,1.69
2019-06-07T10:45:57.216Z,1.58
2019-06-07T10:51:04.258Z,1.41
2019-06-07T10:56:11.168Z,1.65
2019-06-07T11:01:18.304Z,1.85
2019-06-07T11:06:25.331Z,1.68
2019-06-07T11:11:31.944Z,1.69
2019-06-07T11:16:38.687Z,1.43
2019-06-07T11:21:45.352Z,1.54
2019-06-07T11:26:52.013Z,1.46
2019-06-07T11:31:58.665Z,1.58
2019-06-07T11:37:07.185Z,1.59
2019-06-07T11:42:14.108Z,2.61
2019-06-07T11:47:20.663Z,1.45
2019-06-07T11:52:27.426Z,1.67
2019-06-07T11:57:34.136Z,1.41
2019-06-07T12:02:40.746Z,1.25
2019-06-07T12:07:47.200Z,1.21
2019-06-07T12:12:53.755Z,1.81
2019-06-07T12:18:00.374Z,1.25
2019-06-07T12:23:06.892Z,1.20
2019-06-07T12:28:14.606Z,1.11
2019-06-07T12:33:21.782Z,1.40
2019-06-07T12:38:28.251Z,1.77
2019-06-07T12:43:34.835Z,1.63
2019-06-07T12:48:41.456Z,1.41
2019-06-07T12:53:47.895Z,3.29
2019-06-07T12:58:54.557Z,1.36
2019-06-07T13:04:01.199Z,1.43
2019-06-07T13:09:07.901Z,1.24
2019-06-07T13:14:16.038Z,1.23
2019-06-07T13:19:24.341Z,1.18
2019-06-07T13:24:31.210Z,1.28
2019-06-07T13:29:37.855Z,1.18
2019-06-07T13:34:44.756Z,1.07
2019-06-07T13:39:51.552Z,1.23
2019-06-07T13:44:58.160Z,1.34
2019-06-07T13:50:05.162Z,1.22
2019-06-07T13:55:11.872Z,1.62
2019-06-07T14:00:19.084Z,1.21
2019-06-07T14:05:29.040Z,1.27
2019-06-07T14:10:36.221Z,1.67
2019-06-07T14:15:42.828Z,1.24
2019-06-07T14:20:49.831Z,1.48
2019-06-07T14:25:56.393Z,1.74
2019-06-07T14:31:04.134Z,2.05
2019-06-07T14:36:10.898Z,1.53
2019-06-07T14:41:17.746Z,1.68
2019-06-07T14:46:25.662Z,1.55
2019-06-07T14:51:33.454Z,1.41
2019-06-07T14:56:42.030Z,1.48
2019-06-07T15:01:48.632Z,1.66
2019-06-07T15:06:55.544Z,1.96
2019-06-07T15:12:02.435Z,1.66
2019-06-07T15:17:09.521Z,1.83
2019-06-07T15:22:16.391Z,1.44
2019-06-07T15:27:23.242Z,1.66
2019-06-07T15:32:30.671Z,1.59
2019-06-07T15:37:39.231Z,1.73
2019-06-07T15:42:52.967Z,1.78
2019-06-07T15:47:50.310Z,1.69
2019-06-07T15:52:56.950Z,1.75
2019-06-07T15:58:03.910Z,1.55
2019-06-07T16:03:11.173Z,1.63
2019-06-07T16:08:18.114Z,1.91
2019-06-07T16:13:24.990Z,1.67
2019-06-07T16:18:33.164Z,1.62
2019-06-07T16:23:40.067Z,2.19
2019-06-07T16:28:46.945Z,1.64
2019-06-07T16:33:54.391Z,1.68
2019-06-07T16:39:01.385Z,1.79
2019-06-07T16:44:09.358Z,1.93
2019-06-07T16:49:16.578Z,1.83
2019-06-07T16:54:23.332Z,1.78
2019-06-07T16:59:30.261Z,2.19
2019-06-07T17:04:37.367Z,2.02
2019-06-07T17:09:45.704Z,1.88
2019-06-07T17:14:54.481Z,1.90
2019-06-07T17:20:01.743Z,2.04
2019-06-07T17:25:10.736Z,2.07
2019-06-07T17:30:25.383Z,2.22
2019-06-07T17:35:22.325Z,2.03
2019-06-07T17:40:28.776Z,2.25
2019-06-07T17:45:35.746Z,2.14
2019-06-07T17:50:43.718Z,1.95
2019-06-07T17:55:52.289Z,3.05
2019-06-07T18:00:59.366Z,2.13
2019-06-07T18:06:06.667Z,2.22
2019-06-07T18:11:14.087Z,2.81
2019-06-07T18:16:21.031Z,2.03
2019-06-07T18:21:27.915Z,2.47
2019-06-07T18:26:34.888Z,2.19
2019-06-07T18:31:41.770Z,2.31
2019-06-07T18:36:49.508Z,2.36
2019-06-07T18:41:57.453Z,2.45
2019-06-07T18:47:04.906Z,2.74
2019-06-07T18:52:11.821Z,3.11
2019-06-07T18:57:18.927Z,2.41
2019-06-07T19:02:25.642Z,2.71
2019-06-07T19:07:33.271Z,2.46
2019-06-07T19:12:40.329Z,2.87
2019-06-07T19:17:47.640Z,2.95
2019-06-07T19:22:54.455Z,3.21
2019-06-07T19:28:02.660Z,4.60
2019-06-07T19:33:14.266Z,4.26
2019-06-07T19:38:11.732Z,6.00
2019-06-07T19:43:19.472Z,6.34
2019-06-07T19:48:26.976Z,5.83
2019-06-07T19:53:33.712Z,4.52
2019-06-07T19:58:40.938Z,6.37
2019-06-07T20:03:49.714Z,4.52
2019-06-07T20:08:56.611Z,3.79
2019-06-07T20:14:03.444Z,3.24
2019-06-07T20:19:10.378Z,4.48
2019-06-07T20:24:26.757Z,4.89
2019-06-07T20:29:25.968Z,9.16
2019-06-07T20:34:33.319Z,4.11
2019-06-07T20:39:40.342Z,3.89
2019-06-07T20:44:47.009Z,4.05
2019-06-07T20:49:53.636Z,4.39
2019-06-07T20:55:00.561Z,5.46
2019-06-07T21:00:14.659Z,5.11
2019-06-07T21:05:13.992Z,5.66
2019-06-07T21:10:21.041Z,6.58
2019-06-07T21:15:27.545Z,7.89
2019-06-07T21:20:34.484Z,9.56
2019-06-07T21:25:41.317Z,8.26
2019-06-07T21:30:48.130Z,11.27
2019-06-07T21:35:54.905Z,14.23
2019-06-07T21:41:02.200Z,16.46
2019-06-07T21:46:14.953Z,15.33
2019-06-07T21:51:15.953Z,14.02
2019-06-07T21:56:22.624Z,11.27
2019-06-07T22:01:30.236Z,11.32
2019-06-07T22:06:36.804Z,7.46
2019-06-07T22:11:43.770Z,8.16
2019-06-07T22:16:50.427Z,8.77
2019-06-07T22:22:02.599Z,10.04
2019-06-07T22:26:59.539Z,12.10
2019-06-07T22:32:06.829Z,12.85
2019-06-07T22:37:16.418Z,13.48
2019-06-07T22:42:15.293Z,19.75
2019-06-07T22:47:22.374Z,14.53
2019-06-07T22:52:29.150Z,12.85
2019-06-07T22:57:35.659Z,13.18
2019-06-07T23:02:42.532Z,12.38
2019-06-07T23:07:49.052Z,11.67
2019-06-07T23:12:56.003Z,10.96
2019-06-07T23:18:02.528Z,10.15
2019-06-07T23:23:10.058Z,9.22
2019-06-07T23:28:16.656Z,9.40
2019-06-07T23:33:23.576Z,10.17
2019-06-07T23:38:30.072Z,9.28
2019-06-07T23:43:36.891Z,9.93
2019-06-07T23:48:43.477Z,8.54
2019-06-07T23:53:50.576Z,8.28
2019-06-07T23:58:57.640Z,7.51
